Time;durP1;ratioP1;P1;durP2;ratioP2;P2;SDS_P1;SDS_P2;PMS_P1;PMS_P2;Temp;Humidity;BMP_temperature;BMP_pressure;BME280_temperature;BME280_humidity;BME280_pressure;Samples;Min_cycle;Max_cycle;Signal;HPM_P1;HPM_P2
2022/08/31 00:04:02;;;;;;;2.42;1.08;;;16.00;99.90;;;;;;5038502;28;20534;-65
2022/08/31 00:06:33;;;;;;;1.98;1.10;;;15.90;99.90;;;;;;5038392;28;20059;-65
2022/08/31 00:09:01;;;;;;;1.65;0.93;;;15.90;99.90;;;;;;5057270;28;20033;-66
2022/08/31 00:11:29;;;;;;;3.28;1.17;;;15.90;99.90;;;;;;5017842;28;20049;-66
2022/08/31 00:14:00;;;;;;;3.08;1.63;;;15.80;99.90;;;;;;5037304;28;20379;-66
2022/08/31 00:16:28;;;;;;;2.37;1.40;;;15.80;99.90;;;;;;5043455;28;20033;-66
2022/08/31 00:18:54;;;;;;;4.75;1.20;;;15.70;99.90;;;;;;5038730;28;20334;-66
2022/08/31 00:21:27;;;;;;;3.17;1.27;;;15.70;99.90;;;;;;5038678;28;20069;-66
2022/08/31 00:23:54;;;;;;;4.60;1.23;;;15.70;99.90;;;;;;5040075;28;20037;-66
2022/08/31 00:26:21;;;;;;;2.95;1.40;;;15.60;99.90;;;;;;5036772;28;20044;-67
2022/08/31 00:28:47;;;;;;;1.33;0.82;;;15.60;99.90;;;;;;5040305;28;20111;-66
2022/08/31 00:31:13;;;;;;;1.42;1.10;;;15.60;99.90;;;;;;5041591;28;20120;-66
2022/08/31 00:33:39;;;;;;;2.15;1.08;;;15.60;99.90;;;;;;5042849;28;20447;-66
2022/08/31 00:36:08;;;;;;;2.63;1.20;;;15.60;99.90;;;;;;5039509;28;20076;-66
2022/08/31 00:38:34;;;;;;;1.95;1.00;;;15.50;99.90;;;;;;5052552;28;20038;-67
2022/08/31 00:40:59;;;;;;;1.33;0.90;;;15.40;99.90;;;;;;5041031;28;20040;-66
2022/08/31 00:43:44;;;;;;;4.20;1.10;;;15.50;99.90;;;;;;5039810;28;20036;-66
2022/08/31 00:46:21;;;;;;;1.30;0.98;;;15.50;99.90;;;;;;5046526;28;20029;-66
2022/08/31 00:48:55;;;;;;;2.17;0.80;;;15.50;99.90;;;;;;5042452;28;20041;-66
2022/08/31 00:51:21;;;;;;;0.95;0.80;;;15.40;99.90;;;;;;5039192;28;20255;-66
2022/08/31 00:53:47;;;;;;;1.75;1.10;;;15.40;99.90;;;;;;5042623;28;20045;-67
2022/08/31 00:56:13;;;;;;;1.42;0.90;;;15.40;99.90;;;;;;5045449;28;20037;-66
2022/08/31 00:58:39;;;;;;;1.30;0.88;;;15.30;99.90;;;;;;5039100;28;20044;-67
2022/08/31 01:01:07;;;;;;;1.17;0.90;;;15.30;99.90;;;;;;5042827;28;20053;-66
2022/08/31 01:03:33;;;;;;;2.30;1.10;;;15.30;99.90;;;;;;5041540;28;20480;-66
2022/08/31 01:05:59;;;;;;;1.45;0.90;;;15.20;99.90;;;;;;5045882;28;20033;-66
2022/08/31 01:08:24;;;;;;;0.98;0.80;;;15.20;99.90;;;;;;5045652;28;20183;-66
2022/08/31 01:10:50;;;;;;;2.03;0.85;;;15.20;99.90;;;;;;5045557;28;20131;-66
2022/08/31 01:13:16;;;;;;;1.85;0.88;;;15.20;99.90;;;;;;5039622;28;20328;-66
2022/08/31 01:15:48;;;;;;;1.30;0.80;;;15.10;99.90;;;;;;5044001;28;20051;-66
2022/08/31 01:18:15;;;;;;;2.03;0.70;;;15.10;99.90;;;;;;5039912;28;20041;-66
2022/08/31 01:21:01;;;;;;;2.47;0.80;;;15.10;99.90;;;;;;5054114;28;20057;-66
2022/08/31 01:23:30;;;;;;;2.05;0.90;;;15.00;99.90;;;;;;5043563;28;20480;-67
2022/08/31 01:25:58;;;;;;;2.45;0.70;;;15.10;99.90;;;;;;5045892;28;20056;-66
2022/08/31 01:28:24;;;;;;;1.17;0.65;;;15.00;99.90;;;;;;5042787;28;20068;-66
2022/08/31 01:31:08;;;;;;;1.83;0.80;;;15.00;99.90;;;;;;5044769;28;20112;-66
2022/08/31 01:33:37;;;;;;;2.15;0.80;;;15.00;99.90;;;;;;5040735;28;20056;-67
2022/08/31 01:36:03;;;;;;;1.92;0.70;;;14.90;99.90;;;;;;5042417;28;20029;-66
2022/08/31 01:38:31;;;;;;;1.48;0.70;;;14.90;99.90;;;;;;5044720;28;20501;-67
2022/08/31 01:41:00;;;;;;;1.88;0.77;;;14.80;99.90;;;;;;5056398;28;20055;-66
2022/08/31 01:43:28;;;;;;;1.33;0.60;;;14.80;99.90;;;;;;5037780;28;20076;-67
2022/08/31 01:45:53;;;;;;;1.98;0.60;;;14.80;99.90;;;;;;5034725;28;20047;-66
2022/08/31 01:48:21;;;;;;;1.10;0.70;;;14.80;99.90;;;;;;5040253;28;20041;-66
2022/08/31 01:50:47;;;;;;;1.20;0.73;;;14.70;99.90;;;;;;5055606;28;20041;-66
2022/08/31 01:53:13;;;;;;;1.20;0.68;;;14.70;99.90;;;;;;5035376;28;20302;-66
2022/08/31 01:55:40;;;;;;;0.98;0.80;;;14.60;99.90;;;;;;5056440;28;20072;-66
2022/08/31 01:58:06;;;;;;;1.05;0.85;;;14.50;99.90;;;;;;5035895;28;20200;-66
2022/08/31 02:00:32;;;;;;;2.08;0.70;;;14.40;99.90;;;;;;5041113;28;20038;-66
2022/08/31 02:03:00;;;;;;;0.55;0.43;;;14.40;99.90;;;;;;5042203;28;20095;-66
2022/08/31 02:05:27;;;;;;;1.02;0.60;;;14.30;99.90;;;;;;5042483;28;20041;-66
2022/08/31 02:07:53;;;;;;;1.95;0.88;;;14.30;99.90;;;;;;5036763;28;20051;-67
2022/08/31 02:10:19;;;;;;;1.35;0.63;;;14.20;99.90;;;;;;5038543;28;20466;-66
2022/08/31 02:12:45;;;;;;;1.55;0.70;;;14.10;99.90;;;;;;5034384;28;20116;-67
2022/08/31 02:15:10;;;;;;;0.80;0.60;;;14.10;99.90;;;;;;5046276;28;20346;-66
2022/08/31 02:17:36;;;;;;;0.98;0.63;;;14.00;99.90;;;;;;5039238;28;20048;-66
2022/08/31 02:20:04;;;;;;;1.42;0.73;;;14.00;99.90;;;;;;5036676;28;20044;-66
2022/08/31 02:22:29;;;;;;;1.50;0.70;;;13.90;99.90;;;;;;5042004;28;20040;-66
2022/08/31 02:24:55;;;;;;;1.73;0.88;;;13.90;99.90;;;;;;5055605;28;20385;-65
2022/08/31 02:27:20;;;;;;;0.63;0.60;;;13.80;99.90;;;;;;5043509;28;20201;-66
2022/08/31 02:29:46;;;;;;;1.40;0.65;;;13.80;99.90;;;;;;5044913;28;20052;-66
2022/08/31 02:32:11;;;;;;;0.82;0.60;;;13.70;99.90;;;;;;5039249;28;20487;-65
2022/08/31 02:34:39;;;;;;;1.75;0.70;;;13.70;99.90;;;;;;5041245;28;20041;-66
2022/08/31 02:37:05;;;;;;;1.63;0.77;;;13.60;99.90;;;;;;5038596;28;20494;-66
2022/08/31 02:39:30;;;;;;;1.85;0.68;;;13.60;99.90;;;;;;5055621;28;20123;-66
2022/08/31 02:41:56;;;;;;;1.60;0.90;;;13.50;99.90;;;;;;5040082;28;20245;-66
2022/08/31 02:44:22;;;;;;;1.13;0.80;;;13.50;99.90;;;;;;5058309;28;20051;-66
2022/08/31 02:46:47;;;;;;;1.45;0.60;;;13.50;99.90;;;;;;5040515;28;20107;-65
2022/08/31 02:49:13;;;;;;;1.13;0.80;;;13.40;99.90;;;;;;5057051;28;20076;-66
2022/08/31 02:51:40;;;;;;;1.90;0.88;;;13.40;99.90;;;;;;5040637;28;20424;-66
2022/08/31 02:54:06;;;;;;;2.13;0.80;;;13.30;99.90;;;;;;5037046;28;20130;-66
2022/08/31 02:56:32;;;;;;;1.13;0.70;;;13.30;99.90;;;;;;5037366;28;20032;-66
2022/08/31 02:58:58;;;;;;;1.20;0.90;;;13.30;99.90;;;;;;5039607;28;20037;-66
2022/08/31 03:01:25;;;;;;;2.08;1.00;;;13.20;99.90;;;;;;5040320;28;20383;-66
2022/08/31 03:03:51;;;;;;;1.40;0.65;;;13.20;99.90;;;;;;5042217;28;20072;-66
2022/08/31 03:06:18;;;;;;;3.35;0.75;;;13.10;99.90;;;;;;5041202;28;20048;-66
2022/08/31 03:08:45;;;;;;;2.58;0.90;;;13.10;99.90;;;;;;5036546;28;20052;-65
2022/08/31 03:11:12;;;;;;;1.23;0.80;;;13.00;99.90;;;;;;5033520;28;20041;-65
2022/08/31 03:13:38;;;;;;;1.65;0.80;;;13.00;99.90;;;;;;5055803;28;20045;-66
2022/08/31 03:16:06;;;;;;;3.53;0.90;;;13.00;99.90;;;;;;5036805;28;20033;-66
2022/08/31 03:18:32;;;;;;;2.97;0.93;;;12.90;99.90;;;;;;5038919;28;20037;-66
2022/08/31 03:20:58;;;;;;;1.02;0.70;;;12.80;99.90;;;;;;5038488;28;20044;-65
2022/08/31 03:23:24;;;;;;;1.00;0.90;;;12.80;99.90;;;;;;5038923;28;20115;-66
2022/08/31 03:25:50;;;;;;;1.17;0.90;;;12.80;99.90;;;;;;5041205;28;20037;-66
2022/08/31 03:28:15;;;;;;;3.00;0.82;;;12.70;99.90;;;;;;5042116;28;20045;-66
2022/08/31 03:30:41;;;;;;;1.33;0.95;;;12.70;99.90;;;;;;5039547;28;20503;-65
2022/08/31 03:33:07;;;;;;;2.72;0.80;;;12.70;99.90;;;;;;5038656;28;20468;-65
2022/08/31 03:35:33;;;;;;;1.48;1.00;;;12.60;99.90;;;;;;5039769;28;20049;-67
2022/08/31 03:38:01;;;;;;;1.23;0.88;;;12.60;99.90;;;;;;5038813;28;20124;-66
2022/08/31 03:40:27;;;;;;;1.48;0.90;;;12.60;99.90;;;;;;5038305;28;20072;-66
2022/08/31 03:42:52;;;;;;;4.00;0.80;;;12.60;99.90;;;;;;5036748;28;20045;-65
2022/08/31 03:45:18;;;;;;;2.60;0.88;;;12.50;99.90;;;;;;5052544;28;20780;-66
2022/08/31 03:47:45;;;;;;;2.22;0.90;;;12.50;99.90;;;;;;5042167;28;20033;-66
2022/08/31 03:50:10;;;;;;;1.17;0.77;;;12.50;99.90;;;;;;5035727;28;20037;-67
2022/08/31 03:52:37;;;;;;;1.58;0.95;;;12.50;99.90;;;;;;5055490;28;20045;-66
2022/08/31 03:55:04;;;;;;;1.00;0.70;;;12.50;99.90;;;;;;5037152;28;20040;-66
2022/08/31 03:57:29;;;;;;;2.90;0.93;;;12.50;99.90;;;;;;5044157;28;20496;-66
2022/08/31 03:59:56;;;;;;;0.82;0.80;;;12.40;99.90;;;;;;5039648;28;20036;-66
2022/08/31 04:02:23;;;;;;;1.70;0.80;;;12.40;99.90;;;;;;5041676;28;20482;-66
2022/08/31 04:04:50;;;;;;;1.67;1.00;;;12.40;99.90;;;;;;5039496;28;20029;-66
2022/08/31 04:07:17;;;;;;;1.88;0.90;;;12.30;99.90;;;;;;5041832;28;20043;-66
2022/08/31 04:09:44;;;;;;;1.63;0.70;;;12.30;99.90;;;;;;5039076;28;20040;-66
2022/08/31 04:12:09;;;;;;;1.30;0.80;;;12.30;99.90;;;;;;5031353;28;20037;-66
2022/08/31 04:14:35;;;;;;;3.70;1.00;;;12.30;99.90;;;;;;5042230;28;20063;-66
2022/08/31 04:17:01;;;;;;;1.35;1.10;;;12.30;99.90;;;;;;5048001;28;20483;-66
2022/08/31 04:19:26;;;;;;;2.05;1.00;;;12.20;99.90;;;;;;5047070;28;20028;-65
2022/08/31 04:21:52;;;;;;;1.60;1.00;;;12.20;99.90;;;;;;5046867;28;20037;-66
2022/08/31 04:24:17;;;;;;;1.50;0.68;;;12.20;99.90;;;;;;5047126;28;20032;-66
2022/08/31 04:26:43;;;;;;;4.25;1.05;;;12.20;99.90;;;;;;5048363;28;20047;-67
2022/08/31 04:29:09;;;;;;;3.90;1.10;;;12.20;99.90;;;;;;5045392;28;20044;-66
2022/08/31 04:31:36;;;;;;;2.08;0.95;;;12.20;99.90;;;;;;5037426;28;20373;-66
2022/08/31 04:34:03;;;;;;;1.60;0.93;;;12.20;99.90;;;;;;5040626;28;20047;-66
2022/08/31 04:36:30;;;;;;;2.25;1.00;;;12.20;99.90;;;;;;5043945;28;20472;-65
2022/08/31 04:38:58;;;;;;;1.35;1.00;;;12.20;99.90;;;;;;5046919;28;20051;-65
2022/08/31 04:41:28;;;;;;;1.67;1.20;;;12.10;99.90;;;;;;5049207;28;20037;-65
2022/08/31 04:43:56;;;;;;;2.85;1.05;;;12.10;99.90;;;;;;5050954;28;20044;-66
2022/08/31 04:46:22;;;;;;;3.17;1.10;;;12.10;99.90;;;;;;5029658;28;20045;-67
2022/08/31 04:48:48;;;;;;;1.20;1.00;;;12.20;99.90;;;;;;5047130;28;20106;-66
2022/08/31 04:51:17;;;;;;;1.63;1.05;;;12.20;99.90;;;;;;5048826;28;20073;-66
2022/08/31 04:53:43;;;;;;;1.10;1.00;;;12.20;99.90;;;;;;5030050;28;20072;-66
2022/08/31 04:56:15;;;;;;;2.40;1.00;;;12.20;99.90;;;;;;5044829;28;20387;-67
2022/08/31 04:58:42;;;;;;;1.85;0.93;;;12.20;99.90;;;;;;5043896;28;20080;-66
2022/08/31 05:01:09;;;;;;;1.48;1.10;;;12.20;99.90;;;;;;5043463;28;20047;-67
2022/08/31 05:03:35;;;;;;;1.77;1.05;;;12.20;99.90;;;;;;5044430;28;20407;-65
2022/08/31 05:06:01;;;;;;;2.85;1.30;;;12.30;99.90;;;;;;5046069;28;20036;-65
2022/08/31 05:08:27;;;;;;;1.95;1.10;;;12.20;99.90;;;;;;5048473;28;20041;-66
2022/08/31 05:10:53;;;;;;;1.30;1.20;;;12.20;99.90;;;;;;5044999;28;20041;-66
2022/08/31 05:13:19;;;;;;;2.53;1.20;;;12.30;99.90;;;;;;5039125;28;20374;-66
2022/08/31 05:15:44;;;;;;;1.98;1.20;;;12.30;99.90;;;;;;5039187;28;20042;-65
2022/08/31 05:18:11;;;;;;;2.35;1.05;;;12.20;99.90;;;;;;5040159;28;20064;-66
2022/08/31 05:20:39;;;;;;;2.30;1.05;;;12.30;99.90;;;;;;5037415;28;20051;-65
2022/08/31 05:23:05;;;;;;;1.85;1.20;;;12.30;99.90;;;;;;5044521;28;20052;-66
2022/08/31 05:25:31;;;;;;;2.38;1.25;;;12.30;99.90;;;;;;5036245;28;20080;-66
2022/08/31 05:27:56;;;;;;;1.83;1.02;;;12.30;99.90;;;;;;5053179;28;20053;-66
2022/08/31 05:30:23;;;;;;;1.50;1.30;;;12.30;99.90;;;;;;5044600;28;20083;-66
2022/08/31 05:32:49;;;;;;;2.95;1.17;;;12.30;99.90;;;;;;5044065;28;20248;-66
2022/08/31 05:35:15;;;;;;;3.78;1.17;;;12.30;99.90;;;;;;5040987;28;20389;-66
2022/08/31 05:37:41;;;;;;;4.32;1.45;;;12.30;99.90;;;;;;5044968;28;20559;-66
2022/08/31 05:40:07;;;;;;;3.97;1.17;;;12.30;99.90;;;;;;5041225;28;20071;-66
2022/08/31 05:42:34;;;;;;;3.10;1.20;;;12.40;99.90;;;;;;5041792;28;20515;-66
2022/08/31 05:45:01;;;;;;;2.40;1.20;;;12.40;99.90;;;;;;5057427;28;20052;-65
2022/08/31 05:47:27;;;;;;;2.85;1.45;;;12.50;99.90;;;;;;5056478;28;20083;-66
2022/08/31 05:49:53;;;;;;;1.95;1.38;;;12.50;99.90;;;;;;5042765;28;20431;-66
2022/08/31 05:52:18;;;;;;;1.10;1.00;;;12.50;99.90;;;;;;5042612;28;20095;-66
2022/08/31 05:54:44;;;;;;;2.85;1.10;;;12.70;99.90;;;;;;5038490;28;20041;-65
2022/08/31 05:57:10;;;;;;;2.30;1.33;;;12.70;99.90;;;;;;5043481;28;20475;-66
2022/08/31 05:59:38;;;;;;;3.90;1.33;;;12.80;99.90;;;;;;5042081;28;20045;-66
2022/08/31 06:02:04;;;;;;;2.30;1.25;;;12.90;99.90;;;;;;5040183;28;20110;-66
2022/08/31 06:04:30;;;;;;;2.90;1.30;;;13.00;99.90;;;;;;5044040;28;20496;-66
2022/08/31 06:06:57;;;;;;;1.38;1.23;;;13.10;99.90;;;;;;5045529;28;20126;-65
2022/08/31 06:09:22;;;;;;;1.92;1.20;;;13.10;99.90;;;;;;5057728;28;20033;-67
2022/08/31 06:11:48;;;;;;;1.65;1.20;;;13.20;99.90;;;;;;5038539;28;20391;-67
2022/08/31 06:14:13;;;;;;;2.85;1.10;;;13.30;99.90;;;;;;5041915;28;20040;-68
2022/08/31 06:16:43;;;;;;;3.55;1.30;;;13.40;99.90;;;;;;5042391;28;20144;-66
2022/08/31 06:19:09;;;;;;;1.75;1.23;;;13.50;99.90;;;;;;5044598;28;20482;-68
2022/08/31 06:21:39;;;;;;;2.67;1.20;;;13.60;99.90;;;;;;5043647;28;20079;-66
2022/08/31 06:24:05;;;;;;;2.55;1.50;;;13.70;99.90;;;;;;5043971;28;20510;-66
2022/08/31 06:26:34;;;;;;;2.63;1.27;;;13.80;99.90;;;;;;5060588;28;20052;-67
2022/08/31 06:29:02;;;;;;;2.33;1.40;;;13.90;99.90;;;;;;5048048;28;20037;-68
2022/08/31 06:31:36;;;;;;;3.08;1.50;;;14.00;99.90;;;;;;5041706;28;20048;-66
2022/08/31 06:34:03;;;;;;;2.42;1.20;;;14.10;99.90;;;;;;5044158;28;20484;-67
2022/08/31 06:36:30;;;;;;;2.95;1.02;;;14.20;99.90;;;;;;5051050;28;20126;-67
2022/08/31 06:38:58;;;;;;;3.10;1.40;;;14.30;99.90;;;;;;5048961;28;20044;-66
2022/08/31 06:41:27;;;;;;;3.25;1.45;;;14.40;99.90;;;;;;5046439;28;20041;-67
2022/08/31 06:43:53;;;;;;;3.25;1.40;;;14.50;99.90;;;;;;5045773;28;20052;-67
2022/08/31 06:46:20;;;;;;;3.72;1.27;;;14.60;99.90;;;;;;5049367;28;20037;-66
2022/08/31 06:48:47;;;;;;;1.83;1.40;;;14.70;99.90;;;;;;5047148;28;20120;-67
2022/08/31 06:51:13;;;;;;;1.75;1.30;;;14.80;99.90;;;;;;5046951;28;20045;-68
2022/08/31 06:53:41;;;;;;;2.30;1.35;;;14.90;99.90;;;;;;5031292;28;20042;-66
2022/08/31 06:56:12;;;;;;;4.53;1.40;;;15.00;99.90;;;;;;5049036;28;20099;-67
2022/08/31 06:58:39;;;;;;;4.38;1.55;;;15.20;99.90;;;;;;5050240;28;20393;-67
2022/08/31 07:01:07;;;;;;;3.40;1.52;;;15.30;99.90;;;;;;5049375;28;20092;-69
2022/08/31 07:03:37;;;;;;;2.35;1.70;;;15.40;99.90;;;;;;5049529;28;20052;-69
2022/08/31 07:06:16;;;;;;;2.92;1.70;;;15.40;99.90;;;;;;5049926;28;20223;-70
2022/08/31 07:08:43;;;;;;;3.45;1.58;;;15.50;99.90;;;;;;5043572;28;21808;-67
2022/08/31 07:11:19;;;;;;;3.38;1.50;;;15.60;99.90;;;;;;5044084;28;20041;-68
2022/08/31 07:13:46;;;;;;;2.60;1.50;;;15.70;99.90;;;;;;5050316;28;20383;-68
2022/08/31 07:16:14;;;;;;;3.70;1.50;;;15.70;99.90;;;;;;5050304;28;20045;-67
2022/08/31 07:18:41;;;;;;;2.67;1.58;;;15.70;99.90;;;;;;5065632;28;20052;-70
2022/08/31 07:21:12;;;;;;;2.38;1.60;;;15.80;99.90;;;;;;5069401;28;20119;-67
2022/08/31 07:23:38;;;;;;;3.53;1.50;;;15.80;99.90;;;;;;5070080;28;20063;-68
2022/08/31 07:26:10;;;;;;;2.35;1.40;;;15.80;99.90;;;;;;5056769;28;20403;-67
2022/08/31 07:28:37;;;;;;;2.47;1.40;;;15.90;99.90;;;;;;5045905;28;20047;-67
2022/08/31 07:31:04;;;;;;;4.45;1.67;;;16.00;99.90;;;;;;5049755;28;20411;-67
2022/08/31 07:33:37;;;;;;;4.32;1.50;;;16.10;99.90;;;;;;5049342;28;20041;-68
2022/08/31 07:36:09;;;;;;;2.15;1.30;;;16.10;99.90;;;;;;5046022;28;20143;-68
2022/08/31 07:44:04;;;;;;;4.07;1.40;;;16.40;99.90;;;;;;5061630;28;20083;-67
2022/08/31 07:46:30;;;;;;;2.00;1.08;;;16.50;99.90;;;;;;5048863;28;20065;-71
2022/08/31 07:48:59;;;;;;;2.42;1.05;;;16.60;99.90;;;;;;5049614;28;20052;-68
2022/08/31 07:51:26;;;;;;;1.83;1.42;;;16.70;99.90;;;;;;5049233;28;20037;-69
2022/08/31 07:53:54;;;;;;;3.65;1.38;;;16.70;99.90;;;;;;5049476;28;20403;-68
2022/08/31 07:56:22;;;;;;;3.92;1.40;;;16.70;99.90;;;;;;5043941;28;20064;-71
2022/08/31 07:58:48;;;;;;;2.85;1.30;;;16.80;99.90;;;;;;5045450;28;20041;-71
2022/08/31 08:01:15;;;;;;;5.47;1.42;;;16.80;99.90;;;;;;5043478;28;20052;-71
2022/08/31 08:03:42;;;;;;;3.35;1.35;;;16.90;99.90;;;;;;5057977;28;20052;-73
2022/08/31 08:06:14;;;;;;;5.00;1.42;;;17.00;99.90;;;;;;5049337;28;20045;-70
2022/08/31 08:08:41;;;;;;;4.68;1.40;;;17.10;99.90;;;;;;5045047;28;20048;-71
2022/08/31 08:11:08;;;;;;;4.15;1.30;;;17.20;99.90;;;;;;5063215;28;20036;-68
2022/08/31 08:13:34;;;;;;;3.60;0.90;;;17.30;99.90;;;;;;5052706;28;20033;-71
2022/08/31 08:16:00;;;;;;;2.38;1.02;;;17.30;99.90;;;;;;5060371;28;20037;-71
2022/08/31 08:18:25;;;;;;;3.75;1.02;;;17.40;99.90;;;;;;5048467;28;20767;-67
2022/08/31 08:20:51;;;;;;;2.53;1.30;;;17.50;99.90;;;;;;5049642;28;20048;-71
2022/08/31 08:23:18;;;;;;;3.70;1.13;;;17.60;99.90;;;;;;5060198;28;20121;-66
2022/08/31 08:25:45;;;;;;;3.60;1.00;;;17.60;99.90;;;;;;5053283;28;20406;-69
2022/08/31 08:28:16;;;;;;;1.95;1.10;;;17.70;99.90;;;;;;5043428;28;20446;-72
2022/08/31 08:30:46;;;;;;;2.17;1.00;;;17.80;99.90;;;;;;5041490;28;20060;-71
2022/08/31 08:33:12;;;;;;;2.90;1.17;;;17.90;99.90;;;;;;5042342;28;20052;-72
2022/08/31 08:35:39;;;;;;;3.08;1.30;;;17.90;99.90;;;;;;5045707;28;21791;-72
2022/08/31 08:38:06;;;;;;;2.65;1.30;;;17.90;99.90;;;;;;5041320;28;20048;-72
2022/08/31 08:40:38;;;;;;;3.15;1.30;;;18.00;99.90;;;;;;5059621;28;20044;-71
2022/08/31 08:43:04;;;;;;;1.60;1.10;;;18.00;99.90;;;;;;5065260;28;20051;-70
2022/08/31 08:45:31;;;;;;;4.15;1.50;;;18.10;99.90;;;;;;5048861;28;20064;-71
2022/08/31 08:47:57;;;;;;;2.35;1.10;;;18.20;99.90;;;;;;5046812;28;20119;-69
2022/08/31 08:50:26;;;;;;;1.27;1.08;;;18.30;99.90;;;;;;5048352;28;20040;-70
2022/08/31 08:52:55;;;;;;;3.20;1.30;;;18.40;99.90;;;;;;5049301;28;20557;-70
2022/08/31 08:55:32;;;;;;;5.13;1.40;;;18.50;99.90;;;;;;5065026;28;20130;-71
2022/08/31 08:57:58;;;;;;;6.78;1.20;;;18.60;99.90;;;;;;5049775;28;20126;-71
2022/08/31 09:00:27;;;;;;;5.28;1.27;;;18.70;99.90;;;;;;5048917;28;20053;-71
2022/08/31 09:03:19;;;;;;;1.92;1.30;;;18.70;99.90;;;;;;5047560;28;20519;-73
2022/08/31 09:05:51;;;;;;;;;;;18.80;99.90;;;;;;5049416;28;20047;-73
2022/08/31 09:08:53;;;;;;;2.05;1.08;;;18.80;99.90;;;;;;5046564;28;20310;-70
2022/08/31 09:11:33;;;;;;;4.77;1.10;;;18.80;99.90;;;;;;5031732;28;20108;-73
2022/08/31 09:14:46;;;;;;;3.50;1.10;;;18.90;99.90;;;;;;5043037;28;20295;-72
2022/08/31 09:17:17;;;;;;;3.95;1.05;;;18.90;99.90;;;;;;5059626;28;20056;-71
2022/08/31 09:20:00;;;;;;;3.78;0.80;;;19.00;99.90;;;;;;5051986;28;20041;-72
2022/08/31 09:22:45;;;;;;;1.38;0.93;;;19.10;99.90;;;;;;5050822;28;20075;-73
2022/08/31 09:25:14;;;;;;;5.60;0.80;;;19.10;99.90;;;;;;5048506;28;20255;-71
2022/08/31 09:27:45;;;;;;;3.25;1.10;;;19.20;99.90;;;;;;5068124;28;20033;-71
2022/08/31 09:30:16;;;;;;;1.52;1.00;;;19.30;99.90;;;;;;5066749;28;20041;-71
2022/08/31 09:32:55;;;;;;;3.03;1.00;;;19.30;99.90;;;;;;5052008;28;20087;-72
2022/08/31 09:35:29;;;;;;;4.32;1.13;;;19.30;99.90;;;;;;5053979;28;20044;-71
2022/08/31 09:38:13;;;;;;;2.63;0.93;;;19.40;99.90;;;;;;5050315;28;20411;-71
2022/08/31 09:40:48;;;;;;;2.33;1.00;;;19.50;99.90;;;;;;5048761;28;20049;-69
2022/08/31 09:43:22;;;;;;;7.30;1.35;;;19.60;99.90;;;;;;5044224;28;20040;-70
2022/08/31 09:46:10;;;;;;;2.20;1.00;;;19.70;99.90;;;;;;5051235;28;20048;-72
2022/08/31 09:48:57;;;;;;;3.58;0.93;;;19.70;99.90;;;;;;5050760;28;20098;-71
2022/08/31 09:51:32;;;;;;;1.15;0.95;;;19.80;99.90;;;;;;5051180;28;20163;-72
2022/08/31 09:56:57;;;;;;;2.97;1.00;;;20.10;99.90;;;;;;5067670;28;20058;-71
2022/08/31 09:59:48;;;;;;;2.20;0.90;;;20.20;99.90;;;;;;5051185;28;20391;-72
2022/08/31 10:02:25;;;;;;;2.92;1.10;;;20.20;99.90;;;;;;5048975;28;20127;-69
2022/08/31 10:05:05;;;;;;;4.57;1.17;;;20.20;99.90;;;;;;5051031;28;20051;-73
2022/08/31 10:07:51;;;;;;;1.92;1.00;;;20.20;99.90;;;;;;5051414;28;20045;-70
2022/08/31 10:10:23;;;;;;;4.57;1.58;;;20.30;99.90;;;;;;5043320;28;20091;-70
2022/08/31 10:12:51;;;;;;;3.15;1.00;;;20.40;99.90;;;;;;5050204;28;20484;-70
2022/08/31 10:15:27;;;;;;;2.80;1.08;;;20.40;99.90;;;;;;5050960;28;20045;-72
2022/08/31 10:18:19;;;;;;;1.95;0.93;;;20.40;99.90;;;;;;5048619;28;20151;-72
2022/08/31 10:21:07;;;;;;;2.30;1.03;;;20.40;99.90;;;;;;5047657;28;20770;-71
2022/08/31 10:23:52;;;;;;;4.38;0.90;;;20.40;99.90;;;;;;5048873;28;20036;-71
2022/08/31 10:26:41;;;;;;;1.20;0.77;;;20.40;99.90;;;;;;5053397;28;20039;-69
2022/08/31 10:29:35;;;;;;;3.15;1.10;;;20.40;99.90;;;;;;5049904;28;20057;-71
2022/08/31 10:32:06;;;;;;;5.13;0.90;;;20.50;99.90;;;;;;5047684;28;20080;-71
2022/08/31 10:37:32;;;;;;;2.20;0.82;;;20.60;99.90;;;;;;5045829;28;20043;-71
2022/08/31 10:40:07;;;;;;;3.22;0.90;;;20.60;99.90;;;;;;5046789;28;20121;-72
2022/08/31 10:42:40;;;;;;;1.30;0.88;;;20.70;99.90;;;;;;5043294;28;20396;-72
2022/08/31 10:45:13;;;;;;;4.13;0.85;;;20.70;99.90;;;;;;5042679;28;20044;-71
2022/08/31 10:47:45;;;;;;;1.95;0.90;;;20.80;99.90;;;;;;5044699;28;20045;-70
2022/08/31 10:50:15;;;;;;;3.40;0.98;;;20.80;99.90;;;;;;5045462;28;20574;-73
2022/08/31 10:52:56;;;;;;;5.93;1.00;;;20.90;99.90;;;;;;5058096;28;20454;-70
2022/08/31 10:55:31;;;;;;;2.05;0.80;;;20.90;99.90;;;;;;5043233;28;20047;-71
2022/08/31 10:58:22;;;;;;;1.60;0.80;;;20.80;99.90;;;;;;5045391;28;20098;-70
2022/08/31 11:00:53;;;;;;;3.83;0.90;;;20.90;99.90;;;;;;5047043;28;20537;-71
2022/08/31 11:03:38;;;;;;;2.78;0.88;;;20.90;99.90;;;;;;5044708;28;20094;-72
2022/08/31 11:06:35;;;;;;;2.85;0.88;;;21.00;99.90;;;;;;5048029;28;20033;-70
2022/08/31 11:09:13;;;;;;;4.20;1.10;;;21.10;99.90;;;;;;5047284;28;20158;-71
2022/08/31 11:11:44;;;;;;;2.50;0.90;;;21.10;99.90;;;;;;5049638;28;20041;-72
2022/08/31 11:14:25;;;;;;;1.23;0.80;;;21.20;99.70;;;;;;5043418;28;20040;-71
2022/08/31 11:17:17;;;;;;;2.90;1.08;;;21.20;97.70;;;;;;5045078;28;20037;-69
2022/08/31 11:20:05;;;;;;;2.65;0.80;;;21.10;98.90;;;;;;5045312;28;20033;-71
2022/08/31 11:23:25;;;;;;;2.33;1.00;;;21.20;99.40;;;;;;5044103;28;20056;-72
2022/08/31 11:25:59;;;;;;;1.30;0.90;;;21.20;98.70;;;;;;5027334;28;20049;-71
2022/08/31 11:28:36;;;;;;;3.88;1.00;;;21.20;99.40;;;;;;5039337;28;20052;-71
2022/08/31 11:31:22;;;;;;;1.95;0.80;;;21.30;99.80;;;;;;5045498;28;20040;-71
2022/08/31 11:34:06;;;;;;;1.83;0.77;;;21.40;98.90;;;;;;5026686;28;20122;-71
2022/08/31 11:36:51;;;;;;;1.63;1.20;;;21.40;98.90;;;;;;5044717;28;20036;-71
2022/08/31 11:39:29;;;;;;;1.55;0.90;;;21.50;98.60;;;;;;5048734;28;20120;-72
2022/08/31 11:41:57;;;;;;;3.08;1.10;;;21.60;98.70;;;;;;5042555;28;20558;-72
2022/08/31 11:44:30;;;;;;;4.70;0.77;;;21.60;98.80;;;;;;5042243;28;20076;-70
2022/08/31 11:47:01;;;;;;;2.42;0.70;;;21.70;98.10;;;;;;5045838;28;20091;-70
2022/08/31 11:49:42;;;;;;;2.22;0.90;;;21.70;98.20;;;;;;5061531;28;20092;-72
2022/08/31 11:52:23;;;;;;;3.57;0.80;;;21.80;98.70;;;;;;5042726;28;20442;-71
2022/08/31 11:54:49;;;;;;;2.15;0.80;;;21.80;98.30;;;;;;5049424;28;20041;-72
2022/08/31 11:58:05;;;;;;;2.83;0.68;;;21.80;98.60;;;;;;5049676;28;20048;-71
2022/08/31 12:00:56;;;;;;;2.60;0.95;;;21.90;97.40;;;;;;5049136;28;20083;-71
2022/08/31 12:03:42;;;;;;;5.45;1.00;;;21.90;97.60;;;;;;5047142;28;20388;-72
2022/08/31 12:06:32;;;;;;;2.00;0.90;;;22.00;96.80;;;;;;5040158;28;20044;-72
2022/08/31 12:09:17;;;;;;;2.25;0.80;;;22.00;96.40;;;;;;5029415;28;20049;-70
2022/08/31 12:11:52;;;;;;;2.20;0.80;;;21.90;96.70;;;;;;5043585;28;20051;-73
2022/08/31 12:14:29;;;;;;;1.10;0.70;;;21.90;96.70;;;;;;5041796;28;20051;-71
2022/08/31 12:17:20;;;;;;;4.22;0.95;;;22.00;96.70;;;;;;5025782;28;20085;-72
2022/08/31 12:19:59;;;;;;;3.42;0.80;;;22.00;96.60;;;;;;5041429;28;20037;-70
2022/08/31 12:25:36;;;;;;;;;;;22.10;95.80;;;;;;5044965;28;20055;-71
2022/08/31 12:28:28;;;;;;;1.25;0.68;;;22.10;95.10;;;;;;5042564;28;19928;-71
2022/08/31 12:30:57;;;;;;;6.28;0.90;;;22.10;95.80;;;;;;5044262;28;20058;-69
2022/08/31 12:33:26;;;;;;;2.08;0.75;;;22.10;96.10;;;;;;5043970;28;20037;-71
2022/08/31 12:35:56;;;;;;;5.80;0.85;;;22.20;95.80;;;;;;5037540;28;20596;-72
2022/08/31 12:38:25;;;;;;;2.75;0.73;;;22.20;95.30;;;;;;5044026;28;20367;-68
2022/08/31 12:40:56;;;;;;;3.38;1.00;;;22.20;95.70;;;;;;5046892;28;20049;-69
2022/08/31 12:43:30;;;;;;;1.95;0.93;;;22.30;95.60;;;;;;5052632;28;20136;-72
2022/08/31 12:46:08;;;;;;;1.08;0.80;;;22.30;95.20;;;;;;5052114;28;20068;-71
2022/08/31 12:48:48;;;;;;;1.98;0.80;;;22.30;93.80;;;;;;5049377;28;20558;-70
2022/08/31 12:51:38;;;;;;;2.13;0.70;;;22.30;93.80;;;;;;5038552;28;20060;-69
2022/08/31 12:54:28;;;;;;;1.85;0.90;;;22.30;93.70;;;;;;5040179;28;20379;-71
2022/08/31 12:57:34;;;;;;;1.95;1.02;;;22.30;93.90;;;;;;5047139;28;20128;-71
2022/08/31 13:00:09;;;;;;;3.15;0.80;;;22.40;94.60;;;;;;5044494;28;20048;-69
2022/08/31 13:02:41;;;;;;;4.05;1.10;;;22.40;94.70;;;;;;5060162;28;20520;-70
2022/08/31 13:05:35;;;;;;;1.20;0.70;;;22.50;93.00;;;;;;5063551;28;20036;-71
2022/08/31 13:08:17;;;;;;;3.85;1.20;;;22.40;92.70;;;;;;5050669;28;20495;-68
2022/08/31 13:10:42;;;;;;;1.67;0.70;;;22.30;92.90;;;;;;5049806;28;20561;-69
2022/08/31 13:13:23;;;;;;;1.77;0.80;;;22.40;93.10;;;;;;5046899;28;20041;-71
2022/08/31 13:15:49;;;;;;;3.17;0.93;;;22.40;92.90;;;;;;5067168;28;20041;-70
2022/08/31 13:18:21;;;;;;;3.63;1.02;;;22.40;93.00;;;;;;5050047;28;20067;-71
2022/08/31 13:20:51;;;;;;;4.57;1.10;;;22.50;93.40;;;;;;5043924;28;20041;-69
2022/08/31 13:23:30;;;;;;;5.43;1.25;;;22.50;93.30;;;;;;5041911;28;20446;-67
2022/08/31 13:26:08;;;;;;;4.25;0.90;;;22.50;93.00;;;;;;5051107;28;20044;-71